Time;durP1;ratioP1;P1;durP2;ratioP2;P2;SDS_P1;SDS_P2;PMS_P1;PMS_P2;Temp;Humidity;BMP_temperature;BMP_pressure;BME280_temperature;BME280_humidity;BME280_pressure;Samples;Min_cycle;Max_cycle;Signal;HPM_P1;HPM_P2
2023/03/16 00:02:20;;;;;;;6.57;3.53;;;;;;;4.22;94.92;98807.94;5135596;27;20036;-92
2023/03/16 00:04:46;;;;;;;6.18;3.40;;;;;;;4.46;92.01;98801.78;5134084;27;20039;-92
2023/03/16 00:07:13;;;;;;;8.15;3.75;;;;;;;4.53;89.57;98780.69;5129128;27;20103;-91
2023/03/16 00:09:40;;;;;;;9.98;3.35;;;;;;;4.55;90.24;98774.53;5126380;27;20126;-94
2023/03/16 00:12:14;;;;;;;9.32;3.25;;;;;;;4.59;90.41;98797.34;5128685;27;20054;-91
2023/03/16 00:14:40;;;;;;;5.82;3.08;;;;;;;4.41;90.84;98804.41;5130284;27;20043;-92
2023/03/16 00:17:09;;;;;;;5.53;3.20;;;;;;;4.21;92.39;98791.28;5126011;27;20070;-91
2023/03/16 00:19:36;;;;;;;7.30;3.38;;;;;;;3.96;93.31;98786.91;5135642;27;20038;-93
2023/03/16 00:22:02;;;;;;;7.93;3.17;;;;;;;3.94;94.05;98797.44;5134209;27;20039;-94
2023/03/16 00:24:28;;;;;;;7.38;3.45;;;;;;;3.95;94.37;98815.00;5122246;27;20080;-92
2023/03/16 00:26:54;;;;;;;6.57;3.42;;;;;;;3.95;93.52;98787.78;5122705;27;20043;-92
2023/03/16 00:29:21;;;;;;;5.68;2.95;;;;;;;3.98;92.86;98800.94;5132963;27;20126;-92
2023/03/16 00:31:47;;;;;;;5.40;2.85;;;;;;;3.77;94.10;98793.91;5123268;27;20130;-93
2023/03/16 00:34:14;;;;;;;6.90;3.08;;;;;;;3.84;94.93;98820.25;5127517;27;20039;-93
2023/03/16 00:36:41;;;;;;;5.18;2.95;;;;;;;3.86;93.50;98814.97;5128538;27;20088;-93
2023/03/16 00:39:10;;;;;;;6.82;3.20;;;;;;;4.25;88.33;98794.78;5123008;27;20134;-93
2023/03/16 00:41:37;;;;;;;5.20;2.72;;;;;;;4.72;85.66;98804.34;5129416;27;20520;-92
2023/03/16 00:44:04;;;;;;;7.45;3.15;;;;;;;4.98;83.23;98816.56;5120451;27;20046;-94
2023/03/16 00:46:29;;;;;;;5.20;2.88;;;;;;;4.86;82.84;98791.13;5127577;27;20527;-91
2023/03/16 00:48:57;;;;;;;5.55;3.55;;;;;;;5.00;81.10;98797.22;5128162;27;20058;-93
2023/03/16 00:51:23;;;;;;;5.32;2.60;;;;;;;4.99;81.45;98808.66;5130393;27;20043;-92
2023/03/16 00:53:50;;;;;;;4.60;2.60;;;;;;;4.92;80.25;98786.72;5126473;27;20046;-91
2023/03/16 00:56:16;;;;;;;4.97;2.78;;;;;;;5.04;79.90;98803.34;5131195;27;20078;-94
2023/03/16 00:58:42;;;;;;;5.97;2.58;;;;;;;5.26;78.47;98812.03;5133820;27;20050;-92
2023/03/16 01:01:12;;;;;;;6.93;2.67;;;;;;;5.15;77.70;98798.91;5128294;27;20046;-92
2023/03/16 01:03:39;;;;;;;7.38;2.70;;;;;;;5.16;77.47;98795.38;5135744;27;20115;-91
2023/03/16 01:06:06;;;;;;;5.00;2.30;;;;;;;5.32;76.71;98802.31;5128026;27;20043;-94
2023/03/16 01:08:32;;;;;;;4.45;2.30;;;;;;;5.21;76.53;98779.56;5128548;27;20039;-94
2023/03/16 01:11:03;;;;;;;4.40;2.38;;;;;;;5.17;76.59;98786.59;5130109;27;20068;-92
2023/03/16 01:13:29;;;;;;;5.68;2.50;;;;;;;5.01;77.50;98772.63;5126557;27;20042;-93
2023/03/16 01:15:55;;;;;;;6.18;2.55;;;;;;;5.12;76.67;98783.97;5127310;27;20045;-93
2023/03/16 01:18:21;;;;;;;13.07;2.65;;;;;;;5.08;77.07;98776.09;5135065;27;20053;-92
2023/03/16 01:20:49;;;;;;;6.13;2.55;;;;;;;5.01;76.58;98775.25;5125126;27;20046;-91
2023/03/16 01:23:15;;;;;;;4.63;2.10;;;;;;;5.07;76.85;98785.75;5123674;27;20153;-94
2023/03/16 01:25:42;;;;;;;4.13;2.53;;;;;;;5.11;76.69;98790.13;5126981;27;20046;-93
2023/03/16 01:28:09;;;;;;;5.88;2.55;;;;;;;5.00;76.64;98770.00;5123202;27;20039;-93
2023/03/16 01:30:35;;;;;;;3.55;2.40;;;;;;;5.03;77.00;98784.03;5119675;27;20035;-95
2023/03/16 01:33:01;;;;;;;6.22;2.38;;;;;;;5.05;76.58;98782.28;5126832;27;20047;-94
2023/03/16 01:35:27;;;;;;;6.35;2.30;;;;;;;5.04;75.61;98769.97;5130243;27;20034;-93
2023/03/16 01:37:53;;;;;;;3.83;2.20;;;;;;;5.04;75.02;98758.56;5124379;27;20508;-93
2023/03/16 01:40:19;;;;;;;6.72;2.70;;;;;;;5.11;74.43;98766.41;5134343;27;20053;-93
2023/03/16 01:42:46;;;;;;;8.18;2.70;;;;;;;5.09;73.66;98768.16;5129286;27;20149;-92
2023/03/16 01:45:51;;;;;;;4.32;2.47;;;;;;;5.13;74.97;98785.72;5133385;27;20050;-94
2023/03/16 01:48:20;;;;;;;4.63;2.53;;;;;;;5.04;74.44;98774.34;5127320;27;20507;-94
2023/03/16 01:50:47;;;;;;;5.10;2.40;;;;;;;5.02;73.95;98774.34;5123038;27;20464;-94
2023/03/16 01:53:13;;;;;;;7.40;2.70;;;;;;;4.92;73.96;98763.00;5120960;27;20047;-94
2023/03/16 01:55:41;;;;;;;4.32;2.30;;;;;;;4.88;74.85;98765.63;5127927;27;20499;-93
2023/03/16 01:58:06;;;;;;;6.40;3.88;;;;;;;4.68;75.62;98757.81;5121050;27;20039;-93
2023/03/16 02:00:32;;;;;;;6.03;2.15;;;;;;;4.72;76.76;98785.91;5124997;27;20403;-95
2023/03/16 02:03:04;;;;;;;5.82;2.25;;;;;;;4.47;78.10;98761.41;5132629;27;20522;-94
2023/03/16 02:05:37;;;;;;;3.83;2.30;;;;;;;4.33;77.66;98767.56;5126663;27;20560;-94
2023/03/16 02:08:05;;;;;;;4.80;2.38;;;;;;;4.69;76.12;98793.81;5129278;27;20554;-94
2023/03/16 02:10:32;;;;;;;5.72;2.30;;;;;;;4.81;74.35;98790.25;5137278;27;20050;-94
2023/03/16 02:12:58;;;;;;;4.32;2.28;;;;;;;4.71;75.15;98782.41;5132976;27;20042;-94
2023/03/16 02:15:26;;;;;;;5.57;2.33;;;;;;;4.34;79.66;98781.63;5124163;27;20508;-94
2023/03/16 02:17:52;;;;;;;4.30;2.35;;;;;;;3.84;82.95;98796.56;5119005;28;20043;-94
2023/03/16 02:20:31;;;;;;;5.82;2.65;;;;;;;3.43;85.85;98778.13;5132046;27;20138;-93
2023/03/16 02:22:59;;;;;;;7.45;2.45;;;;;;;3.47;83.16;98775.50;5123943;27;20047;-92
2023/03/16 02:25:33;;;;;;;6.32;2.60;;;;;;;4.21;77.60;98795.69;5126226;28;20050;-93
2023/03/16 02:28:07;;;;;;;7.25;2.75;;;;;;;4.26;76.32;98773.72;5125014;28;20039;-94
2023/03/16 02:30:35;;;;;;;7.40;2.70;;;;;;;4.56;74.22;98785.06;5120648;27;20047;-93
2023/03/16 02:33:03;;;;;;;5.38;2.30;;;;;;;4.50;72.08;98762.25;5124229;28;20043;-94
2023/03/16 02:35:30;;;;;;;8.00;2.60;;;;;;;4.69;71.76;98792.06;5123492;28;20453;-95
2023/03/16 02:37:55;;;;;;;3.33;1.83;;;;;;;4.37;74.21;98768.44;5124165;27;20039;-93
2023/03/16 02:40:24;;;;;;;8.32;2.60;;;;;;;4.47;71.88;98788.63;5125485;28;20134;-94
2023/03/16 02:42:55;;;;;;;4.70;2.23;;;;;;;4.50;70.96;98787.72;5126246;27;20035;-93
2023/03/16 02:45:22;;;;;;;6.70;2.30;;;;;;;4.60;69.30;98765.75;5120207;27;20134;-93
2023/03/16 02:47:52;;;;;;;4.03;2.28;;;;;;;4.61;69.38;98774.53;5117866;28;20133;-94
2023/03/16 02:50:18;;;;;;;5.63;2.42;;;;;;;4.51;69.38;98761.41;5120031;28;20070;-93
2023/03/16 02:52:44;;;;;;;5.18;2.40;;;;;;;4.65;68.57;98789.44;5124800;28;20096;-93
2023/03/16 02:55:10;;;;;;;7.60;3.22;;;;;;;4.60;68.02;98788.56;5126773;27;20043;-93
2023/03/16 02:57:36;;;;;;;11.50;2.58;;;;;;;4.72;67.55;98796.44;5129130;27;20106;-94
2023/03/16 03:00:10;;;;;;;5.55;2.45;;;;;;;4.70;66.41;98782.38;5125485;27;20556;-91
2023/03/16 03:02:36;;;;;;;7.80;2.85;;;;;;;4.53;67.15;98753.47;5127962;27;20030;-95
2023/03/16 03:05:03;;;;;;;5.97;3.00;;;;;;;4.65;66.42;98786.81;5135242;27;20504;-92
2023/03/16 03:07:31;;;;;;;5.75;2.28;;;;;;;4.68;66.56;98785.06;5116741;27;20488;-93
2023/03/16 03:09:57;;;;;;;5.43;2.60;;;;;;;4.65;65.60;98773.63;5127606;27;20039;-92
2023/03/16 03:12:23;;;;;;;5.13;2.70;;;;;;;4.52;66.31;98749.09;5128454;27;20504;-93
2023/03/16 03:14:49;;;;;;;7.25;3.88;;;;;;;4.39;66.30;98753.53;5129184;27;20042;-93
2023/03/16 03:17:14;;;;;;;7.47;2.72;;;;;;;4.53;65.37;98775.44;5128569;27;20050;-94
2023/03/16 03:19:40;;;;;;;3.83;2.20;;;;;;;4.57;64.60;98776.28;5126822;27;20041;-94
2023/03/16 03:22:08;;;;;;;7.22;2.85;;;;;;;4.52;64.75;98765.75;5131230;27;20484;-94
2023/03/16 03:24:34;;;;;;;6.10;2.40;;;;;;;4.43;64.93;98757.03;5128890;27;20047;-92
2023/03/16 03:27:04;;;;;;;6.32;2.63;;;;;;;4.49;64.74;98783.34;5136205;27;20047;-93
2023/03/16 03:29:33;;;;;;;7.25;2.58;;;;;;;4.36;65.04;98768.44;5123858;27;20454;-93
2023/03/16 03:31:59;;;;;;;6.30;2.70;;;;;;;4.35;65.40;98775.47;5124317;27;20122;-93
2023/03/16 03:34:25;;;;;;;6.40;2.42;;;;;;;4.51;64.08;98795.63;5134312;27;20039;-93
2023/03/16 03:36:52;;;;;;;4.78;2.40;;;;;;;4.43;64.51;98791.25;5127619;27;20058;-93
2023/03/16 03:39:20;;;;;;;7.05;2.65;;;;;;;4.46;64.27;98810.53;5130254;27;20047;-94
2023/03/16 03:41:45;;;;;;;5.03;2.30;;;;;;;4.39;64.68;98784.25;5131788;27;20039;-93
2023/03/16 03:44:11;;;;;;;5.40;2.42;;;;;;;4.35;64.73;98795.66;5129979;27;20034;-93
2023/03/16 03:46:37;;;;;;;7.20;2.67;;;;;;;4.47;63.72;98808.81;5132062;27;20043;-94
2023/03/16 03:49:04;;;;;;;5.95;2.40;;;;;;;4.38;64.16;98803.53;5130397;27;20043;-94
2023/03/16 03:51:30;;;;;;;7.20;2.50;;;;;;;4.36;63.35;98797.41;5127672;27;20054;-93
2023/03/16 03:53:56;;;;;;;5.65;2.25;;;;;;;4.42;62.41;98813.19;5134246;27;20111;-93
2023/03/16 03:56:23;;;;;;;3.97;1.90;;;;;;;4.19;62.97;98789.53;5128151;27;20509;-94
2023/03/16 03:58:49;;;;;;;5.10;3.33;;;;;;;4.39;62.72;98816.69;5170212;27;20065;-93
2023/03/16 04:01:15;;;;;;;6.65;2.40;;;;;;;4.33;62.64;98804.41;5124392;27;20034;-95
2023/03/16 04:03:41;;;;;;;5.47;2.20;;;;;;;4.25;61.64;98793.03;5130567;27;20142;-93
2023/03/16 04:06:08;;;;;;;2.63;2.00;;;;;;;4.36;62.64;98828.97;5128940;27;20043;-94
2023/03/16 04:08:34;;;;;;;4.32;2.17;;;;;;;4.22;64.06;98829.00;5130355;27;20062;-94
2023/03/16 04:11:00;;;;;;;4.43;2.03;;;;;;;4.02;63.65;98808.84;5133394;27;20070;-93
2023/03/16 04:13:27;;;;;;;6.10;2.35;;;;;;;3.98;63.62;98816.75;5127758;27;20070;-94
2023/03/16 04:15:56;;;;;;;6.97;2.10;;;;;;;3.92;63.48;98799.19;5129577;27;20049;-94
2023/03/16 04:18:21;;;;;;;7.75;2.20;;;;;;;4.00;63.96;98829.00;5106550;27;20055;-94
2023/03/16 04:20:47;;;;;;;6.25;2.67;;;;;;;4.03;62.05;98812.34;5108492;28;20039;-91
2023/03/16 04:23:15;;;;;;;4.15;2.33;;;;;;;4.16;61.41;98826.38;5107218;28;20050;-93
2023/03/16 04:25:41;;;;;;;4.75;2.50;;;;;;;4.24;61.48;98833.38;5112638;28;20067;-94
2023/03/16 04:28:07;;;;;;;5.43;2.75;;;;;;;4.19;60.99;98824.63;5110512;28;20036;-92
2023/03/16 04:30:34;;;;;;;4.05;2.30;;;;;;;4.22;60.93;98827.25;5100817;28;20519;-94
2023/03/16 04:33:00;;;;;;;5.07;2.35;;;;;;;4.21;60.58;98825.50;5109000;28;20525;-93
2023/03/16 04:35:26;;;;;;;4.82;2.15;;;;;;;4.29;60.16;98847.44;5098474;28;20064;-95
2023/03/16 04:37:52;;;;;;;3.90;2.08;;;;;;;4.01;61.36;98822.00;5110755;28;20099;-93
2023/03/16 04:40:19;;;;;;;7.88;2.33;;;;;;;4.08;59.43;98815.88;5101489;28;20048;-93
2023/03/16 04:42:46;;;;;;;3.85;1.88;;;;;;;4.21;60.23;98828.13;5111539;28;20087;-94
2023/03/16 04:45:14;;;;;;;5.15;2.28;;;;;;;4.09;60.28;98807.94;5106373;28;20040;-94
2023/03/16 04:47:41;;;;;;;4.43;2.30;;;;;;;4.24;60.69;98843.91;5106467;28;20435;-93
2023/03/16 04:50:09;;;;;;;5.13;2.70;;;;;;;4.03;60.83;98807.09;5095786;28;20453;-92
2023/03/16 04:52:35;;;;;;;7.00;2.53;;;;;;;4.10;61.96;98822.00;5105880;28;20123;-94
2023/03/16 04:55:01;;;;;;;7.57;2.78;;;;;;;4.11;61.52;98826.38;5101476;28;20064;-92
2023/03/16 04:57:26;;;;;;;5.35;2.30;;;;;;;4.28;60.34;98845.69;5105874;28;20050;-94
2023/03/16 04:59:52;;;;;;;8.25;2.65;;;;;;;4.11;61.40;98815.84;5109821;28;20042;-94
2023/03/16 05:02:19;;;;;;;4.00;2.20;;;;;;;3.98;61.43;98814.09;5109393;28;20512;-93
2023/03/16 05:04:47;;;;;;;5.22;2.60;;;;;;;3.95;64.56;98824.63;5103915;28;20048;-94
2023/03/16 05:07:13;;;;;;;4.30;2.25;;;;;;;3.94;62.08;98838.66;5107958;28;20044;-94
2023/03/16 05:09:39;;;;;;;4.15;2.40;;;;;;;3.85;63.33;98831.63;5112970;28;20089;-91
2023/03/16 05:12:06;;;;;;;4.85;2.38;;;;;;;3.73;65.81;98834.25;5099500;28;20048;-94
2023/03/16 05:14:31;;;;;;;8.18;2.60;;;;;;;3.65;68.72;98856.16;5095081;28;20059;-93
2023/03/16 05:16:57;;;;;;;5.00;2.50;;;;;;;3.31;68.99;98835.91;5102537;28;20043;-93
2023/03/16 05:19:23;;;;;;;4.95;2.25;;;;;;;3.75;63.88;98849.16;5125014;27;20035;-93
2023/03/16 05:21:50;;;;;;;6.72;2.40;;;;;;;3.85;62.67;98834.28;5123844;27;20043;-93
2023/03/16 05:24:16;;;;;;;4.38;2.30;;;;;;;4.11;60.98;98834.28;5116438;27;20051;-93
2023/03/16 05:26:42;;;;;;;4.15;2.00;;;;;;;4.28;61.68;98850.94;5129239;27;20050;-95
2023/03/16 05:29:08;;;;;;;4.80;2.55;;;;;;;4.25;61.61;98853.59;5123882;27;20416;-95
2023/03/16 05:31:36;;;;;;;5.43;2.50;;;;;;;4.21;62.97;98859.72;5136217;27;20140;-92
2023/03/16 05:34:02;;;;;;;4.85;2.35;;;;;;;3.97;61.40;98829.03;5123373;27;20043;-92
2023/03/16 05:36:27;;;;;;;5.75;2.30;;;;;;;4.21;60.89;98858.84;5131972;27;20043;-93
2023/03/16 05:38:55;;;;;;;7.85;3.40;;;;;;;4.42;60.03;98863.22;5128683;27;20072;-95
2023/03/16 05:41:21;;;;;;;6.90;2.50;;;;;;;4.38;60.77;98845.66;5135841;27;20038;-93
2023/03/16 05:43:48;;;;;;;11.27;2.60;;;;;;;4.40;60.20;98829.00;5124339;27;20154;-92
2023/03/16 05:46:13;;;;;;;9.40;2.58;;;;;;;4.57;59.74;98852.66;5128568;27;20047;-93
2023/03/16 05:48:39;;;;;;;5.97;2.40;;;;;;;4.61;59.43;98841.25;5127981;27;20042;-93
2023/03/16 05:51:05;;;;;;;5.20;2.53;;;;;;;4.77;59.35;98864.91;5131746;27;20076;-95
2023/03/16 05:53:31;;;;;;;8.48;2.38;;;;;;;4.59;59.60;98840.38;5124610;27;20047;-93
2023/03/16 05:56:00;;;;;;;4.43;2.60;;;;;;;4.78;59.61;98871.94;5120223;27;20045;-91
2023/03/16 05:58:26;;;;;;;3.00;2.00;;;;;;;4.82;59.51;98881.59;5119974;27;20035;-93
2023/03/16 06:00:54;;;;;;;5.50;2.40;;;;;;;4.73;59.70;98849.13;5127734;27;20304;-94
2023/03/16 06:03:20;;;;;;;6.55;2.50;;;;;;;4.72;60.21;98857.03;5137309;27;20426;-95
2023/03/16 06:05:47;;;;;;;5.15;2.30;;;;;;;4.76;60.04;98855.25;5125368;27;20061;-94
2023/03/16 06:08:14;;;;;;;5.85;2.38;;;;;;;5.01;60.63;98904.41;5130701;27;20074;-94
2023/03/16 06:10:40;;;;;;;3.95;2.15;;;;;;;4.85;61.94;98871.03;5134541;27;20560;-93
2023/03/16 06:13:07;;;;;;;3.55;2.22;;;;;;;5.08;59.21;98897.34;5125571;27;20092;-93
2023/03/16 06:15:33;;;;;;;6.03;2.55;;;;;;;5.01;61.94;98896.50;5125973;27;20039;-96
2023/03/16 06:17:59;;;;;;;6.53;2.60;;;;;;;5.01;60.55;98893.84;5119073;28;20111;-95
2023/03/16 06:20:25;;;;;;;7.95;2.40;;;;;;;5.02;61.08;98886.81;5119488;27;20138;-95
2023/03/16 06:22:51;;;;;;;5.25;2.22;;;;;;;5.12;62.15;98904.38;5130310;27;20062;-94
2023/03/16 06:25:17;;;;;;;9.55;2.58;;;;;;;5.14;58.67;98902.59;5129441;27;20039;-93
2023/03/16 06:27:43;;;;;;;7.00;2.78;;;;;;;5.35;58.67;98899.00;5133189;27;20483;-93
2023/03/16 06:30:13;;;;;;;5.47;2.45;;;;;;;5.52;59.28;98920.03;5134396;27;20044;-93
2023/03/16 06:32:44;;;;;;;2.65;1.80;;;;;;;5.45;57.48;98894.56;5132193;27;20042;-94
2023/03/16 06:35:10;;;;;;;5.05;2.70;;;;;;;5.52;58.29;98897.16;5133313;27;20041;-93
2023/03/16 06:37:36;;;;;;;9.43;2.63;;;;;;;5.80;56.54;98925.19;5127878;28;20046;-94
2023/03/16 06:40:03;;;;;;;4.57;2.10;;;;;;;5.73;55.94;98903.22;5121070;27;20046;-92
2023/03/16 06:42:28;;;;;;;5.95;2.58;;;;;;;5.84;57.29;98911.94;5139834;27;20035;-92
2023/03/16 06:44:54;;;;;;;6.07;2.20;;;;;;;5.91;56.11;98912.78;5138077;27;20095;-93
2023/03/16 06:47:22;;;;;;;7.53;2.58;;;;;;;6.03;55.90;98915.41;5135943;27;20384;-93
2023/03/16 06:49:50;;;;;;;6.97;2.53;;;;;;;6.25;56.91;98939.88;5122363;27;20050;-91
2023/03/16 06:52:16;;;;;;;5.45;2.30;;;;;;;6.29;57.01;98949.53;5138954;27;20046;-93
2023/03/16 06:54:42;;;;;;;4.32;2.50;;;;;;;6.40;55.89;98932.72;5137578;27;20042;-94
2023/03/16 06:57:08;;;;;;;4.20;2.30;;;;;;;6.57;56.78;98947.56;5124065;27;20058;-90
2023/03/16 06:59:34;;;;;;;8.45;3.40;;;;;;;6.50;56.57;98935.28;5132599;27;20138;-95
2023/03/16 07:02:00;;;;;;;4.43;2.22;;;;;;;6.62;57.08;98928.16;5143239;27;20070;-96
2023/03/16 07:04:28;;;;;;;4.75;2.33;;;;;;;6.64;56.95;98921.97;5142205;27;20049;-91
2023/03/16 07:06:53;;;;;;;5.45;2.40;;;;;;;6.88;57.65;98954.38;5142696;27;20342;-95
2023/03/16 07:09:20;;;;;;;6.47;2.78;;;;;;;6.78;56.96;98942.97;5140786;27;20039;-93
2023/03/16 07:11:46;;;;;;;4.00;2.30;;;;;;;6.98;57.71;98945.44;5134259;27;20043;-94
2023/03/16 07:14:12;;;;;;;6.60;3.00;;;;;;;6.97;57.46;98931.34;5122807;27;20045;-95
2023/03/16 07:16:38;;;;;;;5.90;2.40;;;;;;;7.22;57.22;98944.28;5121819;27;20043;-94
2023/03/16 07:19:04;;;;;;;7.85;2.92;;;;;;;7.36;57.36;98952.97;5129046;27;20408;-94
2023/03/16 07:21:38;;;;;;;7.38;2.80;;;;;;;7.42;57.17;98928.22;5135484;27;20038;-94
2023/03/16 07:24:04;;;;;;;7.43;2.85;;;;;;;7.76;55.21;98965.75;5130579;27;20047;-94
2023/03/16 07:26:31;;;;;;;6.60;2.72;;;;;;;7.55;55.39;98931.59;5127237;27;20062;-95
2023/03/16 07:29:09;;;;;;;8.27;3.10;;;;;;;7.42;56.47;98922.94;5138609;27;20070;-94
2023/03/16 07:31:35;;;;;;;5.88;2.90;;;;;;;7.65;56.52;98941.16;5127070;27;20070;-93
2023/03/16 07:34:02;;;;;;;7.90;2.58;;;;;;;7.72;55.52;98942.84;5125714;27;20075;-95
2023/03/16 07:36:28;;;;;;;7.40;2.78;;;;;;;7.73;56.42;98962.25;5127122;27;20043;-94
2023/03/16 07:38:55;;;;;;;8.07;2.55;;;;;;;7.87;56.03;98962.06;5122169;27;20047;-94
2023/03/16 07:41:24;;;;;;;13.05;3.00;;;;;;;7.88;55.52;98946.16;5120685;27;20142;-94
2023/03/16 07:43:50;;;;;;;6.20;2.75;;;;;;;7.92;58.07;98936.41;5127867;27;20067;-96
2023/03/16 07:46:16;;;;;;;8.10;2.70;;;;;;;8.18;56.11;98936.03;5132848;27;20043;-94
2023/03/16 07:48:43;;;;;;;7.57;2.70;;;;;;;8.26;55.27;98949.16;5130139;27;20034;-95
2023/03/16 07:51:10;;;;;;;7.28;2.70;;;;;;;8.21;54.30;98944.81;5127972;27;20050;-95
2023/03/16 07:53:36;;;;;;;7.38;2.78;;;;;;;8.48;55.46;98958.59;5135293;27;20552;-94
2023/03/16 07:56:04;;;;;;;6.40;2.33;;;;;;;8.72;53.07;98967.91;5126223;27;20051;-96
2023/03/16 07:58:31;;;;;;;6.43;2.42;;;;;;;8.68;53.47;98979.47;5133365;27;20035;-95
2023/03/16 08:00:57;;;;;;;6.93;2.50;;;;;;;8.75;53.46;98973.16;5142535;27;20138;-94
2023/03/16 08:03:24;;;;;;;7.38;2.13;;;;;;;8.91;53.82;98968.47;5143256;27;20104;-93
2023/03/16 08:05:51;;;;;;;3.80;2.05;;;;;;;8.92;51.66;98961.41;5127182;27;20051;-94
2023/03/16 08:08:17;;;;;;;5.70;2.40;;;;;;;9.07;51.44;98962.91;5124634;27;20088;-95
2023/03/16 08:10:46;;;;;;;5.07;2.00;;;;;;;8.96;49.78;98974.59;5128503;27;20040;-92
2023/03/16 08:13:14;;;;;;;5.43;2.20;;;;;;;9.11;52.05;98993.75;5133766;27;20045;-94
2023/03/16 08:15:41;;;;;;;7.85;2.45;;;;;;;8.96;51.37;98982.53;5140905;27;20106;-95
2023/03/16 08:18:07;;;;;;;5.38;2.42;;;;;;;9.34;50.86;98996.88;5121537;27;20051;-95
2023/03/16 08:20:33;;;;;;;7.65;2.53;;;;;;;9.30;49.29;98992.53;5096219;28;20079;-95
2023/03/16 08:22:59;;;;;;;8.27;2.00;;;;;;;9.47;47.62;99008.16;5110673;28;20488;-94
2023/03/16 08:25:25;;;;;;;4.65;2.10;;;;;;;9.23;47.08;98983.81;5116253;28;20055;-94
2023/03/16 08:27:51;;;;;;;6.95;2.40;;;;;;;9.55;48.79;98989.44;5115375;28;20130;-93
2023/03/16 08:30:21;;;;;;;13.52;2.30;;;;;;;9.84;44.87;99021.59;5099130;28;20040;-94
2023/03/16 08:32:47;;;;;;;4.90;2.15;;;;;;;9.98;45.07;99005.38;5112956;28;20120;-94
2023/03/16 08:35:15;;;;;;;7.40;2.40;;;;;;;10.08;45.83;98996.31;5107136;28;20504;-94
2023/03/16 08:37:41;;;;;;;6.85;2.20;;;;;;;10.15;43.74;99009.44;5112511;28;20103;-93
2023/03/16 08:40:09;;;;;;;5.50;2.15;;;;;;;10.08;44.54;98987.44;5113908;28;20040;-94
2023/03/16 08:42:35;;;;;;;7.70;2.45;;;;;;;10.22;44.34;98998.66;5114440;28;20039;-94
2023/03/16 08:45:08;;;;;;;5.43;2.20;;;;;;;10.23;42.71;98995.06;5110452;28;20043;-95
2023/03/16 08:47:42;;;;;;;4.38;2.00;;;;;;;10.49;43.21;99022.91;5115878;28;20508;-95
2023/03/16 08:50:11;;;;;;;3.38;1.80;;;;;;;10.22;43.09;99022.59;5115782;28;20075;-94
2023/03/16 08:52:41;;;;;;;4.55;1.83;;;;;;;10.29;43.83;99010.06;5116785;28;20152;-95
2023/03/16 08:55:09;;;;;;;3.55;1.90;;;;;;;10.54;45.72;99010.41;5115542;28;20048;-94
2023/03/16 08:57:38;;;;;;;5.30;2.22;;;;;;;10.39;44.11;99022.25;5096688;28;20040;-92
2023/03/16 09:00:11;;;;;;;2.40;1.63;;;;;;;10.63;40.52;99025.25;5106958;28;20139;-94
2023/03/16 09:02:39;;;;;;;4.10;1.70;;;;;;;10.80;44.24;99028.41;5094121;28;20048;-94
2023/03/16 09:05:08;;;;;;;3.17;1.67;;;;;;;11.05;42.21;99047.28;5092180;28;20055;-93
2023/03/16 09:07:35;;;;;;;4.03;1.90;;;;;;;11.06;43.41;99051.72;5074263;28;20482;-94
2023/03/16 09:10:01;;;;;;;4.68;1.90;;;;;;;11.25;44.78;99019.28;5099974;28;20040;-96
2023/03/16 09:12:27;;;;;;;3.70;1.75;;;;;;;11.23;39.94;99059.28;5117546;28;20137;-95
2023/03/16 09:14:54;;;;;;;4.00;1.90;;;;;;;11.13;40.64;99030.28;5116062;28;20044;-94
2023/03/16 09:17:19;;;;;;;3.33;1.88;;;;;;;11.47;41.58;99059.53;5119814;27;20496;-95
2023/03/16 09:19:48;;;;;;;3.78;1.83;;;;;;;11.61;40.60;99046.75;5119809;27;20134;-96
2023/03/16 09:22:15;;;;;;;3.30;1.80;;;;;;;11.82;39.51;99063.06;5130078;27;20047;-95
2023/03/16 09:24:41;;;;;;;4.57;1.90;;;;;;;11.76;39.51;99031.28;5111826;27;20382;-94
2023/03/16 09:27:07;;;;;;;5.38;1.92;;;;;;;11.77;35.79;99049.88;5111011;27;20053;-95
2023/03/16 09:29:33;;;;;;;2.85;1.60;;;;;;;11.58;34.04;99033.53;5129834;27;20030;-94
2023/03/16 09:31:59;;;;;;;6.60;2.10;;;;;;;11.65;35.57;99027.13;5122479;27;20049;-95
2023/03/16 09:34:25;;;;;;;4.85;2.03;;;;;;;11.86;34.59;99048.75;5108957;27;20069;-94
2023/03/16 09:36:52;;;;;;;4.22;2.10;;;;;;;11.81;35.10;99043.53;5118389;27;20433;-93
2023/03/16 09:39:19;;;;;;;6.22;2.80;;;;;;;11.87;33.48;99050.50;5118788;27;20130;-94
2023/03/16 09:41:49;;;;;;;11.00;4.10;;;;;;;11.86;34.26;99038.06;5128413;27;20419;-93
2023/03/16 09:44:29;;;;;;;5.38;2.17;;;;;;;11.74;34.70;99035.78;5129562;27;20051;-94
2023/03/16 09:46:57;;;;;;;7.05;2.50;;;;;;;12.00;36.95;99043.06;5132511;27;20045;-92
2023/03/16 09:49:27;;;;;;;8.30;3.03;;;;;;;12.19;35.79;99038.06;5111997;27;20035;-94
2023/03/16 09:52:03;;;;;;;5.63;2.20;;;;;;;11.84;35.29;99053.22;5123246;27;20121;-94
2023/03/16 09:54:38;;;;;;;3.80;1.90;;;;;;;12.02;35.73;99058.09;5119569;27;20091;-93
2023/03/16 09:57:12;;;;;;;6.53;2.00;;;;;;;11.83;35.22;99054.16;5121441;27;20047;-93
2023/03/16 09:59:37;;;;;;;5.40;2.13;;;;;;;11.58;35.76;99053.94;5132984;27;20395;-94
2023/03/16 10:02:37;;;;;;;3.83;1.73;;;;;;;11.67;34.67;99043.94;5137194;27;20133;-92
2023/03/16 10:05:08;;;;;;;3.67;1.77;;;;;;;11.88;36.04;99065.59;5124760;27;20046;-94
2023/03/16 10:07:48;;;;;;;4.65;1.98;;;;;;;11.81;37.70;99048.88;5119794;27;20039;-93
2023/03/16 10:10:24;;;;;;;5.07;2.00;;;;;;;11.82;37.79;99063.06;5128068;27;20046;-93
2023/03/16 10:12:52;;;;;;;4.28;1.80;;;;;;;11.77;38.31;99054.31;5123111;27;20567;-93
2023/03/16 10:15:21;;;;;;;4.57;2.20;;;;;;;11.94;37.15;99061.91;5123951;27;20046;-94
2023/03/16 10:17:54;;;;;;;3.58;2.00;;;;;;;11.99;36.61;99055.53;5118669;28;20070;-93
2023/03/16 10:20:22;;;;;;;4.55;1.52;;;;;;;11.83;34.88;99040.84;5119495;28;20138;-94
2023/03/16 10:22:51;;;;;;;3.13;1.90;;;;;;;11.91;36.05;99065.53;5119777;27;20046;-94
2023/03/16 10:25:22;;;;;;;4.63;2.10;;;;;;;11.76;37.03;99058.78;5130967;27;20384;-94
2023/03/16 10:27:49;;;;;;;3.58;1.60;;;;;;;11.84;36.21;99038.16;5123730;28;20496;-94
2023/03/16 10:30:24;;;;;;;4.63;2.40;;;;;;;12.00;36.94;99029.75;5128872;27;20035;-92
2023/03/16 10:32:51;;;;;;;3.25;1.75;;;;;;;12.02;35.70;99028.78;5127435;27;20039;-94
2023/03/16 10:35:30;;;;;;;3.33;1.95;;;;;;;11.99;34.63;99071.53;5128155;28;20084;-93
2023/03/16 10:37:56;;;;;;;;;;;;;;;12.05;35.42;99065.13;5120479;27;20039;-93
2023/03/16 10:40:23;;;;;;;4.07;2.00;;;;;;;11.44;35.68;99057.84;5118649;28;19923;-94
2023/03/16 10:42:49;;;;;;;5.05;1.88;;;;;;;11.27;36.67;99033.44;5159173;27;20407;-93
2023/03/16 10:45:24;;;;;;;2.35;1.70;;;;;;;11.18;36.35;99044.34;5133573;27;20047;-94
2023/03/16 10:47:50;;;;;;;2.55;1.63;;;;;;;11.52;37.29;99044.34;5120220;28;20500;-93
2023/03/16 10:50:24;;;;;;;3.80;1.70;;;;;;;11.40;35.12;99029.53;5119803;27;20073;-93
2023/03/16 10:52:52;;;;;;;2.97;1.80;;;;;;;11.37;36.41;99061.59;5126822;27;20043;-93
2023/03/16 10:55:21;;;;;;;2.65;1.88;;;;;;;11.74;38.36;99073.06;5125677;28;20130;-94
2023/03/16 10:57:52;;;;;;;4.35;1.98;;;;;;;11.84;36.19;99077.22;5124124;27;20114;-91
2023/03/16 11:00:25;;;;;;;6.68;2.58;;;;;;;11.58;35.11;99080.56;5138770;27;20078;-94
2023/03/16 11:02:54;;;;;;;6.13;2.72;;;;;;;11.76;35.04;99087.22;5126165;27;20035;-93
2023/03/16 11:05:28;;;;;;;3.97;2.08;;;;;;;11.69;34.77;99075.88;5131305;27;20035;-94
2023/03/16 11:07:59;;;;;;;3.13;2.00;;;;;;;11.44;36.02;99067.63;5126281;27;20144;-93
2023/03/16 11:10:30;;;;;;;3.72;1.90;;;;;;;11.45;35.08;99059.63;5126001;27;20043;-94
2023/03/16 11:13:11;;;;;;;6.25;2.08;;;;;;;11.21;35.35;99077.09;5124615;27;20043;-94
2023/03/16 11:15:45;;;;;;;2.72;1.70;;;;;;;11.20;35.06;99069.13;5116150;27;20055;-94
2023/03/16 11:18:28;;;;;;;3.72;1.88;;;;;;;11.42;35.75;99053.47;5117218;27;20081;-93
2023/03/16 11:20:54;;;;;;;3.67;1.90;;;;;;;11.42;34.96;99066.78;5103441;28;20039;-94
2023/03/16 11:23:28;;;;;;;2.55;1.73;;;;;;;11.36;34.85;99091.78;5108762;28;20044;-93
2023/03/16 11:26:01;;;;;;;3.08;1.90;;;;;;;11.44;36.32;99072.97;5093612;28;20043;-94
2023/03/16 11:28:35;;;;;;;6.47;3.33;;;;;;;11.37;35.86;99084.69;5104447;28;20512;-94
2023/03/16 11:31:11;;;;;;;7.05;3.17;;;;;;;11.42;35.99;99078.31;5104469;28;20436;-94
2023/03/16 11:33:37;;;;;;;10.73;3.92;;;;;;;11.42;36.12;99070.31;5101058;28;20097;-92
2023/03/16 11:36:16;;;;;;;8.95;2.95;;;;;;;11.56;37.87;99093.97;5118751;28;20052;-95
2023/03/16 11:38:49;;;;;;;8.98;2.83;;;;;;;11.36;37.65;99073.13;5098188;28;20465;-93
2023/03/16 11:41:27;;;;;;;7.22;2.65;;;;;;;11.44;36.79;99059.66;5110474;28;20035;-93
2023/03/16 11:44:00;;;;;;;5.22;1.98;;;;;;;11.46;38.36;99080.00;5106101;28;20189;-93